SUA weather

Public forecast

Using degrees Fahrenheit for public forecast. Weather courtesy of forecast.io.

Current aviation weather report (METAR) for Witham Field

Retrieved 2020/08/14 00:47 UTC (43 minutes ago):

KSUA 140047Z 13004KT 10SM CLR 28/24 A3002

Aviation forecast (TAF) for Witham Field

Retrieved 2020-08-14 00:34 UTC (56 minutes ago):

TAF KSUA 132332Z 1400/1424 10009KT P6SM FEW025 SCT100 BKN250 FM140400 VRB03KT P6SM FEW050 FM141400 15005KT P6SM FEW035 SCT250 FM141800 12013KT P6SM SCT035 SCT080 BKN200